sensor_id;sensor_type;location;lat;lon;timestamp;pressure;altitude;pressure_sealevel;temperature;humidity
4981;BME280;2507;50.392;7.482;2023-12-22T00:00:29;99449.06;;;7.56;76.41
4981;BME280;2507;50.392;7.482;2023-12-22T00:02:55;99447.75;;;7.51;76.55
4981;BME280;2507;50.392;7.482;2023-12-22T00:05:20;99448.47;;;7.53;75.69
4981;BME280;2507;50.392;7.482;2023-12-22T00:07:45;99442.16;;;7.66;75.23
4981;BME280;2507;50.392;7.482;2023-12-22T00:10:10;99424.59;;;7.68;75.02
4981;BME280;2507;50.392;7.482;2023-12-22T00:12:36;99432.56;;;7.78;74.91
4981;BME280;2507;50.392;7.482;2023-12-22T00:15:04;99436.34;;;7.52;76.70
4981;BME280;2507;50.392;7.482;2023-12-22T00:17:29;99420.56;;;7.42;78.05
4981;BME280;2507;50.392;7.482;2023-12-22T00:19:54;99419.72;;;7.31;78.49
4981;BME280;2507;50.392;7.482;2023-12-22T00:22:23;99410.94;;;7.43;78.33
4981;BME280;2507;50.392;7.482;2023-12-22T00:24:50;99413.44;;;7.44;77.73
4981;BME280;2507;50.392;7.482;2023-12-22T00:27:15;99411.09;;;7.52;78.18
4981;BME280;2507;50.392;7.482;2023-12-22T00:29:40;99426.16;;;7.71;78.28
4981;BME280;2507;50.392;7.482;2023-12-22T00:32:06;99460.69;;;7.74;78.32
4981;BME280;2507;50.392;7.482;2023-12-22T00:34:34;99480.16;;;7.81;78.35
4981;BME280;2507;50.392;7.482;2023-12-22T00:36:59;99476.44;;;7.73;80.67
4981;BME280;2507;50.392;7.482;2023-12-22T00:39:25;99441.09;;;7.58;79.01
4981;BME280;2507;50.392;7.482;2023-12-22T00:41:50;99421.97;;;7.35;79.55
4981;BME280;2507;50.392;7.482;2023-12-22T00:44:15;99415.41;;;7.07;80.08
4981;BME280;2507;50.392;7.482;2023-12-22T00:46:41;99425.63;;;7.10;80.55
4981;BME280;2507;50.392;7.482;2023-12-22T00:49:06;99453.00;;;7.05;81.42
4981;BME280;2507;50.392;7.482;2023-12-22T00:51:32;99479.25;;;6.91;82.83
4981;BME280;2507;50.392;7.482;2023-12-22T00:53:57;99489.97;;;6.99;82.30
4981;BME280;2507;50.392;7.482;2023-12-22T00:56:23;99471.03;;;7.08;82.06
4981;BME280;2507;50.392;7.482;2023-12-22T00:58:48;99506.53;;;7.21;80.56
4981;BME280;2507;50.392;7.482;2023-12-22T01:01:13;99546.97;;;7.27;80.69
4981;BME280;2507;50.392;7.482;2023-12-22T01:03:38;99549.66;;;7.14;78.96
4981;BME280;2507;50.392;7.482;2023-12-22T01:06:04;99553.94;;;6.92;80.53
4981;BME280;2507;50.392;7.482;2023-12-22T01:08:29;99576.75;;;6.77;82.27
4981;BME280;2507;50.392;7.482;2023-12-22T01:10:54;99571.94;;;6.71;82.84
4981;BME280;2507;50.392;7.482;2023-12-22T01:13:19;99574.28;;;6.63;82.93
4981;BME280;2507;50.392;7.482;2023-12-22T01:15:45;99577.59;;;6.42;83.30
4981;BME280;2507;50.392;7.482;2023-12-22T01:18:10;99572.91;;;6.34;83.57
4981;BME280;2507;50.392;7.482;2023-12-22T01:20:36;99556.31;;;6.35;84.16
4981;BME280;2507;50.392;7.482;2023-12-22T01:23:01;99540.28;;;6.41;84.95
4981;BME280;2507;50.392;7.482;2023-12-22T01:25:26;99534.44;;;6.38;83.15
4981;BME280;2507;50.392;7.482;2023-12-22T01:27:52;99533.84;;;6.34;83.81
4981;BME280;2507;50.392;7.482;2023-12-22T01:30:18;99524.63;;;6.41;84.30
4981;BME280;2507;50.392;7.482;2023-12-22T01:32:43;99533.78;;;6.47;84.54
4981;BME280;2507;50.392;7.482;2023-12-22T01:35:09;99548.88;;;6.54;83.71
4981;BME280;2507;50.392;7.482;2023-12-22T01:37:36;99550.53;;;6.55;82.97
4981;BME280;2507;50.392;7.482;2023-12-22T01:40:02;99560.13;;;6.55;83.98
4981;BME280;2507;50.392;7.482;2023-12-22T01:42:28;99558.13;;;6.58;84.28
4981;BME280;2507;50.392;7.482;2023-12-22T01:44:53;99550.22;;;6.60;84.03
4981;BME280;2507;50.392;7.482;2023-12-22T01:47:18;99563.63;;;6.66;83.82
4981;BME280;2507;50.392;7.482;2023-12-22T01:49:44;99552.97;;;6.69;84.14
4981;BME280;2507;50.392;7.482;2023-12-22T01:52:09;99552.44;;;6.77;83.70
4981;BME280;2507;50.392;7.482;2023-12-22T01:54:34;99549.72;;;6.78;83.48
4981;BME280;2507;50.392;7.482;2023-12-22T01:57:00;99545.94;;;6.82;83.25
4981;BME280;2507;50.392;7.482;2023-12-22T01:59:26;99552.13;;;6.81;83.11
4981;BME280;2507;50.392;7.482;2023-12-22T02:01:52;99543.41;;;6.93;81.87
4981;BME280;2507;50.392;7.482;2023-12-22T02:04:18;99533.56;;;6.97;82.27
4981;BME280;2507;50.392;7.482;2023-12-22T02:06:44;99557.16;;;6.95;81.84
4981;BME280;2507;50.392;7.482;2023-12-22T02:09:09;99552.97;;;6.93;82.10
4981;BME280;2507;50.392;7.482;2023-12-22T02:11:37;99552.91;;;6.94;82.39
4981;BME280;2507;50.392;7.482;2023-12-22T02:14:03;99546.28;;;7.01;82.30
4981;BME280;2507;50.392;7.482;2023-12-22T02:19:33;99538.16;;;7.17;82.02
4981;BME280;2507;50.392;7.482;2023-12-22T02:22:05;99547.38;;;7.10;81.74
4981;BME280;2507;50.392;7.482;2023-12-22T02:24:30;99547.25;;;7.11;81.67
4981;BME280;2507;50.392;7.482;2023-12-22T02:27:03;99544.25;;;7.29;81.51
4981;BME280;2507;50.392;7.482;2023-12-22T02:29:31;99535.06;;;7.58;80.37
4981;BME280;2507;50.392;7.482;2023-12-22T02:31:58;99542.78;;;7.59;79.92
4981;BME280;2507;50.392;7.482;2023-12-22T02:34:27;99548.84;;;7.60;80.20
4981;BME280;2507;50.392;7.482;2023-12-22T02:36:53;99547.13;;;7.48;80.01
4981;BME280;2507;50.392;7.482;2023-12-22T02:39:20;99549.09;;;7.33;80.99
4981;BME280;2507;50.392;7.482;2023-12-22T02:41:45;99525.09;;;7.52;80.97
4981;BME280;2507;50.392;7.482;2023-12-22T02:44:11;99543.09;;;7.55;80.70
4981;BME280;2507;50.392;7.482;2023-12-22T02:46:36;99515.38;;;7.65;80.74
4981;BME280;2507;50.392;7.482;2023-12-22T02:49:01;99535.81;;;7.71;80.78
4981;BME280;2507;50.392;7.482;2023-12-22T02:51:27;99547.31;;;7.68;80.90
4981;BME280;2507;50.392;7.482;2023-12-22T02:53:52;99544.44;;;7.60;79.90
4981;BME280;2507;50.392;7.482;2023-12-22T02:56:17;99527.84;;;7.61;78.94
4981;BME280;2507;50.392;7.482;2023-12-22T02:58:43;99521.53;;;7.64;78.60
4981;BME280;2507;50.392;7.482;2023-12-22T03:01:08;99530.81;;;7.79;76.92
4981;BME280;2507;50.392;7.482;2023-12-22T03:03:33;99526.44;;;7.90;76.02
4981;BME280;2507;50.392;7.482;2023-12-22T03:05:58;99531.78;;;8.00;75.51
4981;BME280;2507;50.392;7.482;2023-12-22T03:08:24;99534.38;;;8.11;74.22
4981;BME280;2507;50.392;7.482;2023-12-22T03:10:49;99522.75;;;8.15;74.54
4981;BME280;2507;50.392;7.482;2023-12-22T03:13:14;99502.56;;;8.17;74.98
4981;BME280;2507;50.392;7.482;2023-12-22T03:15:39;99505.44;;;8.25;73.01
4981;BME280;2507;50.392;7.482;2023-12-22T03:18:05;99508.16;;;8.23;72.92
4981;BME280;2507;50.392;7.482;2023-12-22T03:20:30;99537.94;;;8.21;72.65
4981;BME280;2507;50.392;7.482;2023-12-22T03:22:55;99524.88;;;8.21;72.99
4981;BME280;2507;50.392;7.482;2023-12-22T03:25:20;99508.97;;;8.24;72.44
4981;BME280;2507;50.392;7.482;2023-12-22T03:27:46;99513.47;;;8.22;72.72
4981;BME280;2507;50.392;7.482;2023-12-22T03:30:11;99508.06;;;8.25;72.50
4981;BME280;2507;50.392;7.482;2023-12-22T03:32:37;99496.88;;;8.34;72.02
4981;BME280;2507;50.392;7.482;2023-12-22T03:35:02;99499.34;;;8.47;72.31
4981;BME280;2507;50.392;7.482;2023-12-22T03:37:27;99508.25;;;8.44;71.46
4981;BME280;2507;50.392;7.482;2023-12-22T03:39:53;99512.63;;;8.44;71.85
4981;BME280;2507;50.392;7.482;2023-12-22T03:42:18;99505.50;;;8.46;72.71
4981;BME280;2507;50.392;7.482;2023-12-22T03:44:44;99485.78;;;8.53;72.09
4981;BME280;2507;50.392;7.482;2023-12-22T03:47:09;99479.56;;;8.65;72.21
4981;BME280;2507;50.392;7.482;2023-12-22T03:49:34;99492.97;;;8.60;71.66
4981;BME280;2507;50.392;7.482;2023-12-22T03:51:59;99506.06;;;8.60;70.35
4981;BME280;2507;50.392;7.482;2023-12-22T03:54:25;99508.06;;;8.68;70.14
4981;BME280;2507;50.392;7.482;2023-12-22T03:56:50;99523.53;;;8.71;70.43
4981;BME280;2507;50.392;7.482;2023-12-22T03:59:15;99511.47;;;8.79;70.55
4981;BME280;2507;50.392;7.482;2023-12-22T04:01:43;99536.88;;;8.88;68.96
4981;BME280;2507;50.392;7.482;2023-12-22T04:04:08;99531.53;;;8.90;69.34
4981;BME280;2507;50.392;7.482;2023-12-22T04:06:38;99529.31;;;8.85;69.24
4981;BME280;2507;50.392;7.482;2023-12-22T04:09:03;99523.22;;;8.85;68.22
4981;BME280;2507;50.392;7.482;2023-12-22T04:11:28;99515.47;;;8.94;68.31
4981;BME280;2507;50.392;7.482;2023-12-22T04:13:53;99527.22;;;9.00;67.88
4981;BME280;2507;50.392;7.482;2023-12-22T04:16:19;99528.03;;;9.00;66.44
4981;BME280;2507;50.392;7.482;2023-12-22T04:18:44;99525.28;;;9.02;67.21
4981;BME280;2507;50.392;7.482;2023-12-22T04:21:09;99532.78;;;9.06;65.83
4981;BME280;2507;50.392;7.482;2023-12-22T04:23:35;99541.19;;;9.10;66.70
4981;BME280;2507;50.392;7.482;2023-12-22T04:26:01;99562.50;;;9.05;68.36
4981;BME280;2507;50.392;7.482;2023-12-22T04:28:27;99559.97;;;8.83;70.37
4981;BME280;2507;50.392;7.482;2023-12-22T04:30:52;99548.41;;;8.54;71.73
4981;BME280;2507;50.392;7.482;2023-12-22T04:33:17;99567.19;;;8.37;73.23
4981;BME280;2507;50.392;7.482;2023-12-22T04:35:43;99554.34;;;8.23;74.23
4981;BME280;2507;50.392;7.482;2023-12-22T04:38:08;99548.53;;;8.19;74.72
4981;BME280;2507;50.392;7.482;2023-12-22T04:40:33;99577.38;;;8.18;74.38
4981;BME280;2507;50.392;7.482;2023-12-22T04:42:58;99578.56;;;8.14;73.39
4981;BME280;2507;50.392;7.482;2023-12-22T04:45:24;99581.91;;;8.16;73.83
4981;BME280;2507;50.392;7.482;2023-12-22T04:47:49;99578.69;;;8.23;73.50
4981;BME280;2507;50.392;7.482;2023-12-22T04:50:14;99581.94;;;8.27;73.50
4981;BME280;2507;50.392;7.482;2023-12-22T04:52:39;99573.13;;;8.28;73.42
4981;BME280;2507;50.392;7.482;2023-12-22T04:55:05;99566.00;;;8.30;73.27
4981;BME280;2507;50.392;7.482;2023-12-22T04:57:30;99555.09;;;8.25;73.35
4981;BME280;2507;50.392;7.482;2023-12-22T04:59:55;99540.34;;;8.24;73.59
4981;BME280;2507;50.392;7.482;2023-12-22T05:02:21;99541.06;;;8.26;72.81
4981;BME280;2507;50.392;7.482;2023-12-22T05:04:46;99554.97;;;8.27;73.19
4981;BME280;2507;50.392;7.482;2023-12-22T05:07:11;99549.72;;;8.38;71.86
4981;BME280;2507;50.392;7.482;2023-12-22T05:09:36;99538.16;;;8.51;71.16
4981;BME280;2507;50.392;7.482;2023-12-22T05:12:02;99548.72;;;8.61;70.03
4981;BME280;2507;50.392;7.482;2023-12-22T05:14:28;99553.38;;;8.57;69.95
4981;BME280;2507;50.392;7.482;2023-12-22T05:16:53;99560.16;;;8.60;70.00
4981;BME280;2507;50.392;7.482;2023-12-22T05:19:21;99583.78;;;8.58;69.94
4981;BME280;2507;50.392;7.482;2023-12-22T05:21:46;99587.22;;;8.70;69.36
4981;BME280;2507;50.392;7.482;2023-12-22T05:24:11;99578.06;;;8.75;70.35
4981;BME280;2507;50.392;7.482;2023-12-22T05:26:37;99575.81;;;8.71;70.79
4981;BME280;2507;50.392;7.482;2023-12-22T05:29:02;99575.13;;;8.69;70.07
4981;BME280;2507;50.392;7.482;2023-12-22T05:31:27;99584.47;;;8.71;70.53
4981;BME280;2507;50.392;7.482;2023-12-22T05:33:52;99579.84;;;8.75;70.26
4981;BME280;2507;50.392;7.482;2023-12-22T05:36:18;99567.34;;;8.78;69.83
4981;BME280;2507;50.392;7.482;2023-12-22T05:38:43;99576.59;;;8.82;69.76
4981;BME280;2507;50.392;7.482;2023-12-22T05:41:08;99574.00;;;8.82;69.63
4981;BME280;2507;50.392;7.482;2023-12-22T05:43:34;99577.00;;;8.78;69.79
4981;BME280;2507;50.392;7.482;2023-12-22T05:45:59;99599.44;;;8.80;69.44
4981;BME280;2507;50.392;7.482;2023-12-22T05:48:28;99597.25;;;8.96;69.85
4981;BME280;2507;50.392;7.482;2023-12-22T05:50:57;99603.44;;;9.06;68.78
4981;BME280;2507;50.392;7.482;2023-12-22T05:53:22;99598.91;;;9.08;68.51
4981;BME280;2507;50.392;7.482;2023-12-22T05:55:48;99588.63;;;9.16;68.46
4981;BME280;2507;50.392;7.482;2023-12-22T05:58:13;99582.81;;;9.13;67.20
4981;BME280;2507;50.392;7.482;2023-12-22T06:00:39;99608.19;;;9.12;67.07
4981;BME280;2507;50.392;7.482;2023-12-22T06:03:04;99595.66;;;9.16;66.48
4981;BME280;2507;50.392;7.482;2023-12-22T06:05:30;99589.47;;;9.17;66.12
4981;BME280;2507;50.392;7.482;2023-12-22T06:07:56;99600.16;;;9.25;65.18
4981;BME280;2507;50.392;7.482;2023-12-22T06:10:21;99575.50;;;9.27;65.21
4981;BME280;2507;50.392;7.482;2023-12-22T06:12:46;99585.47;;;9.34;63.85
4981;BME280;2507;50.392;7.482;2023-12-22T06:15:12;99589.38;;;9.39;62.28
4981;BME280;2507;50.392;7.482;2023-12-22T06:17:37;99590.66;;;9.45;62.47
4981;BME280;2507;50.392;7.482;2023-12-22T06:20:02;99588.75;;;9.47;62.36
4981;BME280;2507;50.392;7.482;2023-12-22T06:22:28;99593.50;;;9.53;62.63
4981;BME280;2507;50.392;7.482;2023-12-22T06:24:53;99580.84;;;9.58;62.84
4981;BME280;2507;50.392;7.482;2023-12-22T06:27:19;99583.06;;;9.62;63.24
4981;BME280;2507;50.392;7.482;2023-12-22T06:29:44;99594.38;;;9.63;63.30
4981;BME280;2507;50.392;7.482;2023-12-22T06:32:09;99588.56;;;9.59;63.45
4981;BME280;2507;50.392;7.482;2023-12-22T06:34:34;99595.94;;;9.65;63.02
4981;BME280;2507;50.392;7.482;2023-12-22T06:37:00;99591.84;;;9.72;62.96
4981;BME280;2507;50.392;7.482;2023-12-22T06:39:25;99583.28;;;9.70;63.26
4981;BME280;2507;50.392;7.482;2023-12-22T06:41:50;99586.72;;;9.71;63.26
4981;BME280;2507;50.392;7.482;2023-12-22T06:44:16;99597.78;;;9.74;63.29
4981;BME280;2507;50.392;7.482;2023-12-22T06:46:41;99603.13;;;9.73;63.23
4981;BME280;2507;50.392;7.482;2023-12-22T06:49:06;99615.28;;;9.74;63.36
4981;BME280;2507;50.392;7.482;2023-12-22T06:51:32;99605.38;;;9.77;64.04
4981;BME280;2507;50.392;7.482;2023-12-22T06:54:02;99600.97;;;9.78;63.78
4981;BME280;2507;50.392;7.482;2023-12-22T06:56:29;99616.56;;;9.79;63.94
4981;BME280;2507;50.392;7.482;2023-12-22T06:58:55;99617.84;;;9.85;64.24
4981;BME280;2507;50.392;7.482;2023-12-22T07:03:50;99607.22;;;9.86;64.39
4981;BME280;2507;50.392;7.482;2023-12-22T07:06:20;99620.47;;;9.85;64.45
4981;BME280;2507;50.392;7.482;2023-12-22T07:08:46;99609.53;;;9.80;63.91
4981;BME280;2507;50.392;7.482;2023-12-22T07:11:21;99632.78;;;9.73;64.17
4981;BME280;2507;50.392;7.482;2023-12-22T07:13:46;99631.50;;;9.68;64.03
4981;BME280;2507;50.392;7.482;2023-12-22T07:16:11;99666.47;;;9.46;63.21
4981;BME280;2507;50.392;7.482;2023-12-22T07:18:37;99667.22;;;8.94;65.00
4981;BME280;2507;50.392;7.482;2023-12-22T07:21:03;99641.56;;;8.66;64.86
4981;BME280;2507;50.392;7.482;2023-12-22T07:23:28;99637.03;;;8.46;65.35
4981;BME280;2507;50.392;7.482;2023-12-22T07:25:53;99645.34;;;8.40;66.66
4981;BME280;2507;50.392;7.482;2023-12-22T07:28:19;99651.53;;;8.39;67.21
4981;BME280;2507;50.392;7.482;2023-12-22T07:30:44;99659.72;;;8.46;68.79
4981;BME280;2507;50.392;7.482;2023-12-22T07:33:09;99666.97;;;8.53;68.66
4981;BME280;2507;50.392;7.482;2023-12-22T07:35:34;99658.44;;;8.62;69.15
4981;BME280;2507;50.392;7.482;2023-12-22T07:38:00;99658.41;;;8.73;69.40
4981;BME280;2507;50.392;7.482;2023-12-22T07:40:27;99665.91;;;8.78;69.92
4981;BME280;2507;50.392;7.482;2023-12-22T07:42:55;99671.16;;;8.78;70.47
4981;BME280;2507;50.392;7.482;2023-12-22T07:45:20;99668.88;;;8.73;71.85
4981;BME280;2507;50.392;7.482;2023-12-22T07:47:46;99687.91;;;8.53;74.14
4981;BME280;2507;50.392;7.482;2023-12-22T07:50:11;99699.41;;;8.29;76.70
4981;BME280;2507;50.392;7.482;2023-12-22T07:52:36;99703.44;;;7.87;79.71
4981;BME280;2507;50.392;7.482;2023-12-22T07:55:07;99692.22;;;7.74;81.21
4981;BME280;2507;50.392;7.482;2023-12-22T07:57:34;99683.94;;;7.80;82.61
4981;BME280;2507;50.392;7.482;2023-12-22T07:59:59;99685.41;;;7.95;82.35
4981;BME280;2507;50.392;7.482;2023-12-22T08:02:25;99671.47;;;8.18;80.54
4981;BME280;2507;50.392;7.482;2023-12-22T08:04:50;99658.31;;;8.42;78.51
4981;BME280;2507;50.392;7.482;2023-12-22T08:07:16;99652.50;;;8.38;78.43
4981;BME280;2507;50.392;7.482;2023-12-22T08:09:41;99668.66;;;8.54;76.86
4981;BME280;2507;50.392;7.482;2023-12-22T08:12:07;99662.13;;;8.60;76.99
4981;BME280;2507;50.392;7.482;2023-12-22T08:14:32;99653.78;;;8.66;77.03
4981;BME280;2507;50.392;7.482;2023-12-22T08:16:58;99660.56;;;8.68;77.77
4981;BME280;2507;50.392;7.482;2023-12-22T08:19:23;99659.84;;;8.77;77.37
4981;BME280;2507;50.392;7.482;2023-12-22T08:21:48;99658.97;;;8.99;76.22
4981;BME280;2507;50.392;7.482;2023-12-22T08:24:13;99650.25;;;9.20;75.46
4981;BME280;2507;50.392;7.482;2023-12-22T08:26:39;99649.97;;;9.35;74.43
4981;BME280;2507;50.392;7.482;2023-12-22T08:29:04;99647.56;;;9.43;73.33
4981;BME280;2507;50.392;7.482;2023-12-22T08:31:29;99652.31;;;9.49;73.14
4981;BME280;2507;50.392;7.482;2023-12-22T08:33:54;99653.13;;;9.49;71.43
4981;BME280;2507;50.392;7.482;2023-12-22T08:36:20;99653.19;;;9.59;71.34
4981;BME280;2507;50.392;7.482;2023-12-22T08:38:45;99642.16;;;9.55;70.78
4981;BME280;2507;50.392;7.482;2023-12-22T08:41:10;99649.25;;;9.64;70.80
4981;BME280;2507;50.392;7.482;2023-12-22T08:43:37;99646.00;;;9.72;70.95
4981;BME280;2507;50.392;7.482;2023-12-22T08:46:03;99656.56;;;9.81;70.65
4981;BME280;2507;50.392;7.482;2023-12-22T08:48:28;99657.06;;;9.96;69.22
4981;BME280;2507;50.392;7.482;2023-12-22T08:50:54;99652.53;;;9.98;68.97
4981;BME280;2507;50.392;7.482;2023-12-22T08:53:19;99654.06;;;10.00;68.84
4981;BME280;2507;50.392;7.482;2023-12-22T08:55:44;99665.81;;;10.06;68.04
4981;BME280;2507;50.392;7.482;2023-12-22T08:58:09;99659.63;;;10.07;68.15
4981;BME280;2507;50.392;7.482;2023-12-22T09:00:35;99655.69;;;10.12;67.83
4981;BME280;2507;50.392;7.482;2023-12-22T09:03:00;99658.34;;;10.22;67.58
4981;BME280;2507;50.392;7.482;2023-12-22T09:05:25;99654.28;;;10.29;67.58
4981;BME280;2507;50.392;7.482;2023-12-22T09:07:51;99660.53;;;10.38;66.14
4981;BME280;2507;50.392;7.482;2023-12-22T09:10:16;99642.47;;;10.44;66.07
4981;BME280;2507;50.392;7.482;2023-12-22T09:12:41;99651.09;;;10.56;65.76
4981;BME280;2507;50.392;7.482;2023-12-22T09:15:07;99651.28;;;10.73;65.47
4981;BME280;2507;50.392;7.482;2023-12-22T09:17:32;99661.63;;;10.65;65.83
4981;BME280;2507;50.392;7.482;2023-12-22T09:19:58;99649.28;;;10.56;65.13
4981;BME280;2507;50.392;7.482;2023-12-22T09:22:23;99648.03;;;10.60;65.69
4981;BME280;2507;50.392;7.482;2023-12-22T09:24:48;99651.38;;;10.62;65.06
4981;BME280;2507;50.392;7.482;2023-12-22T09:27:14;99637.91;;;10.76;64.82
4981;BME280;2507;50.392;7.482;2023-12-22T09:29:39;99640.69;;;10.84;63.66
4981;BME280;2507;50.392;7.482;2023-12-22T09:32:04;99639.03;;;10.83;63.39
4981;BME280;2507;50.392;7.482;2023-12-22T09:34:30;99630.88;;;10.86;63.14
4981;BME280;2507;50.392;7.482;2023-12-22T09:36:55;99639.31;;;10.90;63.13
4981;BME280;2507;50.392;7.482;2023-12-22T09:39:21;99634.78;;;11.01;62.81
4981;BME280;2507;50.392;7.482;2023-12-22T09:41:48;99630.81;;;11.07;63.05
4981;BME280;2507;50.392;7.482;2023-12-22T09:44:18;99642.66;;;11.11;62.90
4981;BME280;2507;50.392;7.482;2023-12-22T09:46:44;99636.84;;;11.07;62.57
4981;BME280;2507;50.392;7.482;2023-12-22T09:49:10;99628.59;;;11.12;63.32
4981;BME280;2507;50.392;7.482;2023-12-22T09:51:36;99628.31;;;11.24;62.96
4981;BME280;2507;50.392;7.482;2023-12-22T09:54:02;99624.59;;;11.17;62.67
4981;BME280;2507;50.392;7.482;2023-12-22T09:56:29;99629.56;;;11.20;61.96
4981;BME280;2507;50.392;7.482;2023-12-22T09:58:56;99629.28;;;11.33;62.43
4981;BME280;2507;50.392;7.482;2023-12-22T10:01:22;99626.97;;;11.40;61.70
4981;BME280;2507;50.392;7.482;2023-12-22T10:03:48;99612.31;;;11.56;61.33
4981;BME280;2507;50.392;7.482;2023-12-22T10:06:14;99604.84;;;11.61;61.47
4981;BME280;2507;50.392;7.482;2023-12-22T10:08:42;99614.78;;;11.58;60.86
4981;BME280;2507;50.392;7.482;2023-12-22T10:11:08;99613.28;;;11.74;60.85
4981;BME280;2507;50.392;7.482;2023-12-22T10:13:36;99610.63;;;11.84;60.82
4981;BME280;2507;50.392;7.482;2023-12-22T10:16:03;99610.53;;;11.76;60.16
4981;BME280;2507;50.392;7.482;2023-12-22T10:18:29;99604.88;;;11.71;60.63
4981;BME280;2507;50.392;7.482;2023-12-22T10:20:54;99601.81;;;11.66;61.09
4981;BME280;2507;50.392;7.482;2023-12-22T10:23:20;99598.44;;;11.64;61.08
4981;BME280;2507;50.392;7.482;2023-12-22T10:25:45;99591.16;;;11.58;61.29
4981;BME280;2507;50.392;7.482;2023-12-22T10:28:11;99593.09;;;11.56;62.20
4981;BME280;2507;50.392;7.482;2023-12-22T10:30:37;99588.81;;;11.74;61.93
4981;BME280;2507;50.392;7.482;2023-12-22T10:33:06;99582.56;;;11.84;62.53
4981;BME280;2507;50.392;7.482;2023-12-22T10:35:32;99573.44;;;11.79;62.81
4981;BME280;2507;50.392;7.482;2023-12-22T10:37:58;99573.03;;;11.74;62.79
4981;BME280;2507;50.392;7.482;2023-12-22T10:40:24;99570.81;;;11.69;62.47
4981;BME280;2507;50.392;7.482;2023-12-22T10:42:50;99567.22;;;11.70;62.92
4981;BME280;2507;50.392;7.482;2023-12-22T10:45:17;99560.00;;;11.82;62.46
4981;BME280;2507;50.392;7.482;2023-12-22T10:47:43;99570.81;;;11.79;62.23
4981;BME280;2507;50.392;7.482;2023-12-22T10:50:11;99573.13;;;11.82;62.50
4981;BME280;2507;50.392;7.482;2023-12-22T10:52:37;99565.69;;;11.68;63.00
4981;BME280;2507;50.392;7.482;2023-12-22T10:55:02;99566.25;;;11.62;63.32
4981;BME280;2507;50.392;7.482;2023-12-22T10:57:28;99560.16;;;11.80;63.27
4981;BME280;2507;50.392;7.482;2023-12-22T10:59:56;99558.91;;;11.75;62.97
4981;BME280;2507;50.392;7.482;2023-12-22T11:02:22;99554.09;;;11.70;63.98
4981;BME280;2507;50.392;7.482;2023-12-22T11:04:57;99538.00;;;11.64;64.43
4981;BME280;2507;50.392;7.482;2023-12-22T11:07:24;99536.53;;;11.42;65.85
4981;BME280;2507;50.392;7.482;2023-12-22T11:09:56;99517.19;;;11.24;67.73
4981;BME280;2507;50.392;7.482;2023-12-22T11:12:23;99502.97;;;11.07;68.37
4981;BME280;2507;50.392;7.482;2023-12-22T11:14:49;99508.78;;;11.01;68.86
4981;BME280;2507;50.392;7.482;2023-12-22T11:17:21;99514.28;;;10.98;68.59
4981;BME280;2507;50.392;7.482;2023-12-22T11:19:49;99518.84;;;10.96;69.24
4981;BME280;2507;50.392;7.482;2023-12-22T11:22:16;99524.66;;;11.09;68.57
4981;BME280;2507;50.392;7.482;2023-12-22T11:24:43;99516.78;;;11.19;68.24
4981;BME280;2507;50.392;7.482;2023-12-22T11:27:10;99500.63;;;11.23;67.58
4981;BME280;2507;50.392;7.482;2023-12-22T11:29:37;99508.78;;;11.20;67.50
4981;BME280;2507;50.392;7.482;2023-12-22T11:32:05;99493.41;;;11.25;68.09
4981;BME280;2507;50.392;7.482;2023-12-22T11:34:32;99495.09;;;11.36;67.19
4981;BME280;2507;50.392;7.482;2023-12-22T11:36:58;99495.19;;;11.34;67.27
4981;BME280;2507;50.392;7.482;2023-12-22T11:39:25;99490.09;;;11.43;67.40
4981;BME280;2507;50.392;7.482;2023-12-22T11:41:51;99493.81;;;11.50;67.25
4981;BME280;2507;50.392;7.482;2023-12-22T11:44:19;99489.22;;;11.52;67.31
4981;BME280;2507;50.392;7.482;2023-12-22T11:46:45;99493.50;;;11.62;67.42
4981;BME280;2507;50.392;7.482;2023-12-22T11:49:12;99481.44;;;11.79;67.35
4981;BME280;2507;50.392;7.482;2023-12-22T11:51:37;99480.00;;;11.94;66.74
4981;BME280;2507;50.392;7.482;2023-12-22T11:54:04;99478.75;;;11.98;65.71
4981;BME280;2507;50.392;7.482;2023-12-22T11:56:49;99480.09;;;12.02;65.44
4981;BME280;2507;50.392;7.482;2023-12-22T11:59:16;99477.56;;;12.10;65.41
4981;BME280;2507;50.392;7.482;2023-12-22T12:01:41;99481.19;;;12.09;65.57
4981;BME280;2507;50.392;7.482;2023-12-22T12:04:07;99476.75;;;12.09;65.09
4981;BME280;2507;50.392;7.482;2023-12-22T12:06:33;99480.09;;;12.02;65.84
4981;BME280;2507;50.392;7.482;2023-12-22T12:09:01;99469.50;;;12.21;65.36
4981;BME280;2507;50.392;7.482;2023-12-22T12:14:22;99467.47;;;12.05;66.14
4981;BME280;2507;50.392;7.482;2023-12-22T12:17:01;99476.59;;;12.11;66.27
4981;BME280;2507;50.392;7.482;2023-12-22T12:19:28;99476.13;;;12.25;65.39
4981;BME280;2507;50.392;7.482;2023-12-22T12:21:54;99481.38;;;12.25;65.73
4981;BME280;2507;50.392;7.482;2023-12-22T12:24:20;99475.13;;;12.26;65.38
4981;BME280;2507;50.392;7.482;2023-12-22T12:26:45;99470.25;;;12.31;65.36
4981;BME280;2507;50.392;7.482;2023-12-22T12:29:10;99474.31;;;12.25;65.51
4981;BME280;2507;50.392;7.482;2023-12-22T12:31:36;99467.63;;;12.31;65.50
4981;BME280;2507;50.392;7.482;2023-12-22T12:34:07;99475.09;;;12.36;65.32
4981;BME280;2507;50.392;7.482;2023-12-22T12:36:33;99467.03;;;12.37;65.85
4981;BME280;2507;50.392;7.482;2023-12-22T12:39:06;99468.22;;;12.25;66.11
4981;BME280;2507;50.392;7.482;2023-12-22T12:41:40;99469.50;;;12.21;66.82
4981;BME280;2507;50.392;7.482;2023-12-22T12:44:06;99467.63;;;12.31;66.96
4981;BME280;2507;50.392;7.482;2023-12-22T12:46:35;99482.88;;;12.27;66.94
4981;BME280;2507;50.392;7.482;2023-12-22T12:49:11;99472.59;;;12.34;66.22
4981;BME280;2507;50.392;7.482;2023-12-22T12:51:41;99470.34;;;12.39;65.46
4981;BME280;2507;50.392;7.482;2023-12-22T12:54:08;99473.28;;;12.36;65.39
4981;BME280;2507;50.392;7.482;2023-12-22T12:56:43;99467.50;;;12.32;65.61
4981;BME280;2507;50.392;7.482;2023-12-22T12:59:14;99473.19;;;12.28;65.66
4981;BME280;2507;50.392;7.482;2023-12-22T13:01:46;99475.94;;;12.36;64.93
4981;BME280;2507;50.392;7.482;2023-12-22T13:04:12;99476.59;;;12.38;64.16
4981;BME280;2507;50.392;7.482;2023-12-22T13:06:50;99470.94;;;12.33;64.04
4981;BME280;2507;50.392;7.482;2023-12-22T13:09:17;99474.41;;;12.33;64.39
4981;BME280;2507;50.392;7.482;2023-12-22T13:11:43;99460.94;;;12.37;63.90
4981;BME280;2507;50.392;7.482;2023-12-22T13:14:11;99461.78;;;12.37;63.18
4981;BME280;2507;50.392;7.482;2023-12-22T13:16:37;99472.53;;;12.44;63.20
4981;BME280;2507;50.392;7.482;2023-12-22T13:19:03;99467.03;;;12.37;63.16
4981;BME280;2507;50.392;7.482;2023-12-22T13:21:29;99468.25;;;12.43;63.39
4981;BME280;2507;50.392;7.482;2023-12-22T13:24:14;99461.50;;;12.58;62.46
4981;BME280;2507;50.392;7.482;2023-12-22T13:26:41;99464.44;;;12.55;62.49
4981;BME280;2507;50.392;7.482;2023-12-22T13:29:08;99462.88;;;12.62;61.85
4981;BME280;2507;50.392;7.482;2023-12-22T13:31:36;99465.25;;;12.55;62.21